Time;durP1;ratioP1;P1;durP2;ratioP2;P2;SDS_P1;SDS_P2;PMS_P1;PMS_P2;Temp;Humidity;BMP_temperature;BMP_pressure;BME280_temperature;BME280_humidity;BME280_pressure;Samples;Min_cycle;Max_cycle;Signal;HPM_P1;HPM_P2
2022/04/06 00:00:24;;;;;;;11.55;7.97;;;10.80;95.50;;;;;;5061848;28;20078;-68
2022/04/06 00:02:49;;;;;;;11.32;8.32;;;10.80;95.60;;;;;;5060212;28;20024;-68
2022/04/06 00:05:16;;;;;;;12.10;8.57;;;10.70;95.70;;;;;;5056644;28;20034;-68
2022/04/06 00:07:43;;;;;;;10.43;7.13;;;10.80;95.70;;;;;;5058812;28;20039;-68
2022/04/06 00:10:10;;;;;;;9.23;7.07;;;10.80;95.70;;;;;;5057609;28;20055;-68
2022/04/06 00:12:37;;;;;;;13.40;8.45;;;10.80;95.50;;;;;;5060853;28;20464;-68
2022/04/06 00:15:05;;;;;;;10.18;7.65;;;10.80;95.50;;;;;;5062007;28;20571;-68
2022/04/06 00:17:31;;;;;;;9.40;7.30;;;10.80;95.40;;;;;;5057703;28;20041;-68
2022/04/06 00:19:56;;;;;;;10.60;7.18;;;10.80;95.50;;;;;;5057968;28;20028;-68
2022/04/06 00:22:22;;;;;;;10.45;6.82;;;10.80;95.50;;;;;;5060327;28;20058;-67
2022/04/06 00:24:48;;;;;;;10.20;7.47;;;10.80;95.50;;;;;;5059145;28;20501;-68
2022/04/06 00:27:14;;;;;;;9.65;6.72;;;10.70;95.60;;;;;;5057886;28;20039;-68
2022/04/06 00:29:40;;;;;;;11.02;7.07;;;10.70;95.60;;;;;;5043709;28;20059;-68
2022/04/06 00:32:06;;;;;;;10.80;7.00;;;10.70;95.60;;;;;;5061199;28;20056;-68
2022/04/06 00:37:16;;;;;;;9.50;7.20;;;10.70;95.60;;;;;;5062384;28;20547;-68
2022/04/06 00:39:42;;;;;;;9.80;7.13;;;10.70;95.60;;;;;;5064961;28;20035;-68
2022/04/06 00:42:08;;;;;;;10.73;6.90;;;10.70;95.60;;;;;;5064471;28;20037;-68
2022/04/06 00:44:34;;;;;;;9.35;7.18;;;10.70;95.70;;;;;;5064109;28;20052;-67
2022/04/06 00:47:04;;;;;;;10.15;7.30;;;10.80;95.60;;;;;;5064324;28;20032;-68
2022/04/06 00:49:31;;;;;;;9.80;7.00;;;10.80;95.60;;;;;;5059835;28;20401;-68
2022/04/06 00:51:59;;;;;;;9.10;6.75;;;10.80;95.50;;;;;;5048292;28;20071;-68
2022/04/06 00:54:27;;;;;;;8.73;7.13;;;10.80;95.50;;;;;;5047120;28;20515;-68
2022/04/06 00:56:53;;;;;;;9.40;7.03;;;10.80;95.60;;;;;;5063046;28;20051;-68
2022/04/06 00:59:19;;;;;;;10.52;7.30;;;10.80;95.70;;;;;;5064695;28;20396;-68
2022/04/06 01:01:46;;;;;;;9.65;6.30;;;10.80;95.70;;;;;;5060522;28;20051;-68
2022/04/06 01:04:12;;;;;;;11.23;7.20;;;10.80;95.60;;;;;;5060625;28;20107;-68
2022/04/06 01:06:38;;;;;;;9.10;7.40;;;10.80;95.50;;;;;;5059199;28;20033;-67
2022/04/06 01:09:06;;;;;;;10.00;7.57;;;10.80;95.50;;;;;;5059316;28;20155;-67
2022/04/06 01:11:31;;;;;;;9.77;7.63;;;10.80;95.50;;;;;;5061736;28;20111;-67
2022/04/06 01:13:57;;;;;;;8.35;6.55;;;10.80;95.50;;;;;;5061913;28;20412;-67
2022/04/06 01:16:23;;;;;;;9.80;7.82;;;10.70;95.50;;;;;;5044303;28;20094;-67
2022/04/06 01:18:49;;;;;;;10.20;7.68;;;10.70;95.70;;;;;;5064711;28;20033;-67
2022/04/06 01:21:15;;;;;;;9.55;7.50;;;10.60;95.70;;;;;;5053704;28;20839;-67
2022/04/06 01:23:45;;;;;;;10.90;7.95;;;10.60;95.70;;;;;;5058362;28;20029;-67
2022/04/06 01:26:12;;;;;;;10.02;7.50;;;10.60;95.70;;;;;;5056125;28;20028;-67
2022/04/06 01:28:39;;;;;;;12.32;7.68;;;10.70;95.70;;;;;;5057820;28;20044;-67
2022/04/06 01:31:05;;;;;;;11.55;7.38;;;10.70;95.70;;;;;;5058835;28;20067;-67
2022/04/06 01:33:31;;;;;;;11.32;7.43;;;10.60;95.70;;;;;;5062965;28;20039;-67
2022/04/06 01:35:58;;;;;;;10.35;7.40;;;10.70;95.70;;;;;;5061666;28;20020;-67
2022/04/06 01:38:24;;;;;;;12.50;8.25;;;10.70;95.70;;;;;;5061613;28;20060;-66
2022/04/06 01:40:51;;;;;;;11.18;7.93;;;10.70;95.60;;;;;;5057803;28;20131;-67
2022/04/06 01:43:16;;;;;;;9.63;7.82;;;10.70;95.60;;;;;;5060743;28;20024;-67
2022/04/06 01:45:43;;;;;;;10.95;7.82;;;10.70;95.70;;;;;;5060553;28;20392;-67
2022/04/06 01:48:08;;;;;;;11.13;8.45;;;10.70;95.70;;;;;;5062521;28;20110;-67
2022/04/06 01:53:19;;;;;;;10.95;7.80;;;10.70;95.50;;;;;;5060243;28;20043;-67
2022/04/06 01:55:44;;;;;;;9.85;8.15;;;10.60;95.60;;;;;;5062564;28;20032;-67
2022/04/06 01:58:10;;;;;;;10.93;8.05;;;10.60;95.60;;;;;;5061294;28;20032;-67
2022/04/06 02:00:36;;;;;;;10.98;8.50;;;10.60;95.60;;;;;;5060895;28;20437;-67
2022/04/06 02:03:02;;;;;;;10.88;8.20;;;10.60;95.60;;;;;;5060125;28;20100;-67
2022/04/06 02:05:33;;;;;;;11.05;8.43;;;10.60;95.60;;;;;;5060514;28;20029;-67
2022/04/06 02:07:59;;;;;;;10.52;8.10;;;10.60;95.90;;;;;;5060700;28;20101;-67
2022/04/06 02:10:26;;;;;;;11.52;8.20;;;10.60;95.70;;;;;;5059873;28;20111;-67
2022/04/06 02:12:57;;;;;;;10.10;8.05;;;10.60;95.80;;;;;;5061501;28;20036;-67
2022/04/06 02:15:23;;;;;;;11.38;8.18;;;10.50;95.80;;;;;;5060846;28;20102;-67
2022/04/06 02:17:50;;;;;;;12.88;8.50;;;10.60;95.70;;;;;;5059463;28;20040;-67
2022/04/06 02:20:17;;;;;;;10.80;8.10;;;10.50;95.70;;;;;;5060335;28;20063;-67
2022/04/06 02:22:43;;;;;;;11.38;7.80;;;10.60;95.70;;;;;;5056172;28;20054;-67
2022/04/06 02:25:12;;;;;;;12.02;8.65;;;10.60;95.60;;;;;;5054153;28;20037;-67
2022/04/06 02:27:46;;;;;;;9.73;7.82;;;10.60;95.60;;;;;;5058197;28;20032;-67
2022/04/06 02:30:13;;;;;;;9.95;7.93;;;10.60;95.50;;;;;;5058214;28;20471;-67
2022/04/06 02:32:39;;;;;;;10.75;8.18;;;10.70;95.50;;;;;;5060432;28;20028;-67
2022/04/06 02:35:05;;;;;;;9.45;7.22;;;10.70;95.40;;;;;;5060391;28;20858;-67
2022/04/06 02:37:30;;;;;;;11.15;7.63;;;10.70;95.40;;;;;;5057501;28;20548;-67
2022/04/06 02:39:56;;;;;;;11.07;7.78;;;10.70;95.40;;;;;;5054911;28;20027;-67
2022/04/06 02:42:22;;;;;;;10.95;7.22;;;10.70;95.30;;;;;;5041271;28;20098;-67
2022/04/06 02:44:47;;;;;;;9.27;6.93;;;10.60;95.30;;;;;;5041312;28;20055;-67
2022/04/06 02:47:13;;;;;;;8.48;6.72;;;10.60;95.30;;;;;;5057424;28;20143;-67
2022/04/06 02:49:39;;;;;;;9.70;6.97;;;10.60;95.30;;;;;;5059490;28;20119;-67
2022/04/06 02:52:05;;;;;;;11.63;7.30;;;10.60;95.30;;;;;;5059716;28;20040;-67
2022/04/06 02:54:31;;;;;;;8.30;5.78;;;10.60;95.20;;;;;;5054079;28;20044;-67
2022/04/06 02:56:56;;;;;;;7.95;6.25;;;10.60;95.20;;;;;;5053330;28;20028;-67
2022/04/06 02:59:22;;;;;;;10.77;6.57;;;10.60;95.10;;;;;;5053894;28;20029;-67
2022/04/06 03:01:48;;;;;;;8.52;6.60;;;10.60;95.10;;;;;;5059027;28;20434;-65
2022/04/06 03:04:13;;;;;;;11.13;5.93;;;10.60;95.00;;;;;;5057066;28;20531;-67
2022/04/06 03:06:40;;;;;;;9.75;5.90;;;10.60;94.90;;;;;;5059854;28;20033;-67
2022/04/06 03:09:07;;;;;;;8.52;5.85;;;10.60;94.80;;;;;;5058368;28;20033;-67
2022/04/06 03:11:34;;;;;;;6.95;5.30;;;10.60;95.10;;;;;;5059613;28;20110;-67
2022/04/06 03:13:59;;;;;;;9.98;5.68;;;10.60;94.90;;;;;;5054577;28;20060;-67
2022/04/06 03:16:25;;;;;;;8.63;5.15;;;10.60;94.90;;;;;;5054547;28;20116;-67
2022/04/06 03:18:51;;;;;;;7.28;5.32;;;10.50;94.80;;;;;;5057350;28;20036;-67
2022/04/06 03:21:16;;;;;;;10.35;5.82;;;10.50;94.80;;;;;;5057582;28;20036;-66
2022/04/06 03:23:42;;;;;;;10.48;5.47;;;10.40;94.90;;;;;;5059749;28;20175;-66
2022/04/06 03:26:08;;;;;;;6.95;5.15;;;10.40;95.10;;;;;;5048680;28;20040;-67
2022/04/06 03:28:34;;;;;;;7.43;5.20;;;10.40;95.00;;;;;;5059319;28;20988;-67
2022/04/06 03:31:00;;;;;;;13.13;6.07;;;10.50;94.80;;;;;;5058286;28;20021;-67
2022/04/06 03:33:25;;;;;;;7.50;5.20;;;10.50;94.80;;;;;;5056040;28;20547;-67
2022/04/06 03:35:52;;;;;;;7.13;5.13;;;10.40;94.90;;;;;;5057186;28;20032;-67
2022/04/06 03:38:18;;;;;;;9.63;5.72;;;10.40;95.00;;;;;;5056777;28;20107;-67
2022/04/06 03:40:44;;;;;;;8.77;5.82;;;10.30;95.00;;;;;;5056199;28;20747;-67
2022/04/06 03:43:09;;;;;;;8.48;5.60;;;10.40;95.10;;;;;;5055263;28;20029;-67
2022/04/06 03:45:35;;;;;;;12.05;6.18;;;10.40;95.00;;;;;;5057735;28;20032;-67
2022/04/06 03:48:01;;;;;;;10.20;6.35;;;10.40;95.00;;;;;;5057981;28;20032;-67
2022/04/06 03:50:27;;;;;;;9.18;6.13;;;10.40;95.00;;;;;;5057234;28;20571;-67
2022/04/06 03:52:52;;;;;;;8.05;6.15;;;10.40;95.00;;;;;;5056141;28;20378;-67
2022/04/06 03:55:18;;;;;;;8.90;6.40;;;10.50;94.90;;;;;;5053715;28;20037;-67
2022/04/06 03:57:44;;;;;;;10.07;6.03;;;10.50;94.70;;;;;;5056834;28;20048;-67
2022/04/06 04:00:12;;;;;;;10.27;5.97;;;10.50;94.80;;;;;;5053786;28;20165;-67
2022/04/06 04:02:38;;;;;;;10.88;6.80;;;10.50;94.80;;;;;;5056396;28;20039;-67
2022/04/06 04:05:04;;;;;;;10.23;6.75;;;10.60;94.60;;;;;;5056724;28;20033;-67
2022/04/06 04:07:32;;;;;;;16.45;6.90;;;10.60;94.60;;;;;;5052454;28;20043;-67
2022/04/06 04:09:58;;;;;;;9.75;6.25;;;10.60;94.50;;;;;;5058414;28;20020;-67
2022/04/06 04:12:24;;;;;;;12.15;6.63;;;10.60;94.50;;;;;;5056329;28;20135;-67
2022/04/06 04:14:49;;;;;;;17.73;7.32;;;10.60;94.30;;;;;;5056650;28;20603;-67
2022/04/06 04:17:15;;;;;;;10.18;7.07;;;10.60;94.40;;;;;;5051595;28;20033;-67
2022/04/06 04:19:41;;;;;;;13.13;7.30;;;10.50;94.30;;;;;;5059130;28;20039;-67
2022/04/06 04:22:06;;;;;;;10.32;6.93;;;10.50;94.40;;;;;;5056166;28;20029;-67
2022/04/06 04:24:32;;;;;;;10.65;7.20;;;10.50;94.50;;;;;;5059281;28;20128;-68
2022/04/06 04:26:58;;;;;;;14.50;7.30;;;10.60;94.40;;;;;;5023738;28;20606;-67
2022/04/06 04:29:24;;;;;;;10.43;6.40;;;10.60;94.30;;;;;;5049370;28;20029;-67
2022/04/06 04:31:49;;;;;;;13.27;7.88;;;10.60;94.30;;;;;;5055491;28;20591;-67
2022/04/06 04:34:15;;;;;;;9.93;6.47;;;10.60;94.20;;;;;;5054250;28;20887;-67
2022/04/06 04:36:41;;;;;;;13.38;7.30;;;10.50;94.20;;;;;;5056777;28;20540;-67
2022/04/06 04:39:07;;;;;;;9.88;6.68;;;10.60;94.30;;;;;;5056824;28;20039;-67
2022/04/06 04:41:33;;;;;;;11.32;6.80;;;10.50;94.20;;;;;;5058324;28;20037;-67
2022/04/06 04:43:59;;;;;;;9.73;6.47;;;10.40;94.60;;;;;;5057275;28;20033;-67
2022/04/06 04:46:25;;;;;;;12.05;6.72;;;10.50;94.40;;;;;;5055300;28;20040;-67
2022/04/06 04:48:51;;;;;;;12.40;8.18;;;10.50;94.40;;;;;;5056472;28;20040;-67
2022/04/06 04:51:16;;;;;;;10.57;7.03;;;10.50;94.40;;;;;;5053271;28;20043;-67
2022/04/06 04:53:42;;;;;;;13.30;7.72;;;10.50;94.50;;;;;;5057140;28;20032;-67
2022/04/06 04:56:08;;;;;;;12.40;6.97;;;10.40;94.60;;;;;;5057715;28;20127;-67
2022/04/06 04:58:34;;;;;;;10.93;7.43;;;10.50;94.50;;;;;;5058055;28;20150;-67
2022/04/06 05:01:00;;;;;;;15.68;7.20;;;10.50;94.50;;;;;;5057036;28;20839;-67
2022/04/06 05:03:26;;;;;;;11.48;7.13;;;10.50;94.50;;;;;;5056251;28;20033;-67
2022/04/06 05:05:53;;;;;;;12.63;7.22;;;10.50;94.40;;;;;;5049756;28;20028;-67
2022/04/06 05:08:23;;;;;;;11.15;6.75;;;10.60;94.20;;;;;;5036865;28;20103;-67
2022/04/06 05:10:49;;;;;;;11.50;6.97;;;10.60;94.20;;;;;;5056507;28;20024;-67
2022/04/06 05:13:17;;;;;;;11.82;7.05;;;10.60;94.10;;;;;;5055636;28;20076;-67
2022/04/06 05:15:44;;;;;;;11.75;7.07;;;10.60;94.10;;;;;;5058026;28;20028;-67
2022/04/06 05:18:10;;;;;;;9.93;6.80;;;10.60;94.20;;;;;;5055178;28;20063;-67
2022/04/06 05:20:35;;;;;;;12.77;6.97;;;10.60;94.30;;;;;;5059902;28;20132;-67
2022/04/06 05:23:01;;;;;;;13.18;7.32;;;10.60;94.30;;;;;;5060959;28;20078;-67
2022/04/06 05:25:27;;;;;;;18.40;9.35;;;10.70;94.30;;;;;;5060833;28;20370;-67
2022/04/06 05:27:54;;;;;;;14.77;8.30;;;10.70;94.20;;;;;;5061183;28;20048;-67
2022/04/06 05:30:25;;;;;;;13.35;7.80;;;10.70;94.30;;;;;;5061035;28;20035;-67
2022/04/06 05:32:54;;;;;;;11.10;7.72;;;10.70;94.20;;;;;;5056940;28;20032;-67
2022/04/06 05:35:20;;;;;;;24.38;10.50;;;10.70;94.10;;;;;;5059665;28;20087;-67
2022/04/06 05:37:46;;;;;;;20.30;10.35;;;10.70;94.10;;;;;;5060003;28;20037;-67
2022/04/06 05:40:14;;;;;;;18.33;10.75;;;10.80;94.20;;;;;;5060432;28;20132;-67
2022/04/06 05:42:41;;;;;;;19.45;8.98;;;10.70;94.20;;;;;;5060663;28;20045;-67
2022/04/06 05:45:07;;;;;;;15.60;9.15;;;10.70;94.20;;;;;;5059062;28;20829;-67
2022/04/06 05:47:34;;;;;;;15.77;8.50;;;10.70;94.50;;;;;;5056692;28;20582;-67
2022/04/06 05:50:00;;;;;;;16.92;9.45;;;10.60;94.40;;;;;;5060202;28;20500;-66
2022/04/06 05:52:27;;;;;;;18.27;9.27;;;10.60;94.50;;;;;;5055424;28;20040;-67
2022/04/06 05:54:52;;;;;;;15.50;9.82;;;10.60;94.60;;;;;;5058068;28;20393;-67
2022/04/06 05:57:19;;;;;;;15.75;10.18;;;10.70;94.50;;;;;;5058359;28;20021;-67
2022/04/06 05:59:45;;;;;;;20.33;10.98;;;10.80;94.40;;;;;;5059927;28;20040;-66
2022/04/06 06:02:11;;;;;;;27.27;11.20;;;10.80;94.30;;;;;;5060457;28;20142;-68
2022/04/06 06:04:40;;;;;;;21.60;11.00;;;10.70;94.30;;;;;;5058241;28;20024;-67
2022/04/06 06:07:06;;;;;;;19.08;10.68;;;10.70;94.40;;;;;;5057519;28;20031;-67
2022/04/06 06:09:33;;;;;;;27.52;11.88;;;10.90;94.20;;;;;;5056296;28;20024;-67
2022/04/06 06:11:59;;;;;;;20.95;11.30;;;11.10;93.90;;;;;;5060494;28;20032;-67
2022/04/06 06:14:25;;;;;;;18.35;11.77;;;11.20;93.50;;;;;;5059050;28;20036;-67
2022/04/06 06:16:51;;;;;;;20.88;11.75;;;11.20;93.10;;;;;;5060256;28;20040;-67
2022/04/06 06:19:18;;;;;;;28.42;13.55;;;11.20;93.10;;;;;;5060246;28;20035;-67
2022/04/06 06:21:44;;;;;;;22.70;12.98;;;11.20;93.10;;;;;;5058562;28;20051;-67
2022/04/06 06:24:09;;;;;;;27.42;12.85;;;11.10;93.10;;;;;;5055857;28;20507;-67
2022/04/06 06:26:37;;;;;;;20.85;12.80;;;11.10;93.20;;;;;;5056821;28;20033;-67
2022/04/06 06:29:03;;;;;;;28.77;15.95;;;11.10;93.40;;;;;;5059083;28;20024;-67
2022/04/06 06:31:29;;;;;;;26.42;13.98;;;11.00;93.20;;;;;;5059456;28;20074;-67
2022/04/06 06:33:59;;;;;;;24.45;13.63;;;10.90;93.50;;;;;;5042143;28;20820;-67
2022/04/06 06:36:25;;;;;;;28.80;14.57;;;11.00;93.50;;;;;;5055583;28;20105;-67
2022/04/06 06:38:52;;;;;;;30.77;14.35;;;11.00;93.10;;;;;;5057482;28;20447;-66
2022/04/06 06:41:18;;;;;;;30.52;15.07;;;11.20;93.30;;;;;;5055662;28;20044;-67
2022/04/06 06:43:45;;;;;;;28.88;13.93;;;11.30;93.00;;;;;;5056480;28;20697;-67
2022/04/06 06:46:11;;;;;;;22.27;13.13;;;11.40;92.00;;;;;;5057467;28;20544;-67
2022/04/06 06:48:37;;;;;;;21.08;12.40;;;11.60;92.10;;;;;;5059034;28;20191;-67
2022/04/06 06:51:03;;;;;;;29.75;15.00;;;11.90;91.80;;;;;;5055941;28;20020;-67
2022/04/06 06:53:30;;;;;;;31.00;15.55;;;12.20;91.00;;;;;;5057622;28;20028;-67
2022/04/06 06:55:55;;;;;;;20.80;12.85;;;12.30;89.80;;;;;;5058056;28;20036;-67
2022/04/06 06:58:21;;;;;;;26.80;15.93;;;12.40;89.40;;;;;;5058737;28;20035;-68
2022/04/06 07:00:47;;;;;;;35.08;23.95;;;12.70;89.80;;;;;;5056295;28;20467;-67
2022/04/06 07:03:13;;;;;;;28.00;16.75;;;13.10;88.40;;;;;;5054330;28;20025;-63
2022/04/06 07:05:38;;;;;;;27.52;16.40;;;13.10;86.20;;;;;;5057404;28;20040;-66
2022/04/06 07:08:05;;;;;;;37.95;21.08;;;13.20;85.40;;;;;;5056238;28;20381;-66
2022/04/06 07:10:31;;;;;;;30.17;16.92;;;13.10;85.70;;;;;;5058815;28;20063;-67
2022/04/06 07:12:57;;;;;;;24.48;13.38;;;12.70;87.00;;;;;;5039193;28;20752;-67
2022/04/06 07:15:24;;;;;;;25.08;13.10;;;13.00;87.40;;;;;;5058569;28;20511;-68
2022/04/06 07:17:57;;;;;;;20.40;11.20;;;13.00;85.20;;;;;;5055604;28;20032;-67
2022/04/06 07:20:25;;;;;;;21.70;11.75;;;13.10;84.50;;;;;;5048710;28;20040;-66
2022/04/06 07:22:51;;;;;;;19.40;11.02;;;13.10;85.40;;;;;;5054109;28;20036;-67
2022/04/06 07:25:17;;;;;;;19.10;10.80;;;13.00;84.50;;;;;;5054090;28;20021;-67
2022/04/06 07:27:43;;;;;;;19.00;10.32;;;13.10;86.00;;;;;;5056226;28;20032;-66
2022/04/06 07:30:10;;;;;;;16.15;9.75;;;12.90;84.00;;;;;;5056583;28;20560;-67
2022/04/06 07:32:36;;;;;;;17.48;8.73;;;13.00;84.80;;;;;;5058151;28;20028;-66
2022/04/06 07:35:06;;;;;;;22.17;9.55;;;13.60;84.00;;;;;;5057959;28;20127;-67
2022/04/06 07:37:43;;;;;;;18.60;8.07;;;14.10;79.80;;;;;;5051873;28;20421;-61
2022/04/06 07:40:11;;;;;;;16.15;7.88;;;14.60;77.70;;;;;;5055140;28;20052;-66
2022/04/06 07:42:38;;;;;;;26.75;9.45;;;14.50;77.10;;;;;;5053836;28;20033;-66
2022/04/06 07:45:09;;;;;;;15.27;8.85;;;14.70;77.30;;;;;;5057020;28;20036;-66
2022/04/06 07:47:37;;;;;;;13.48;7.93;;;14.20;77.80;;;;;;5052046;28;20094;-66
2022/04/06 07:50:04;;;;;;;17.25;9.30;;;13.90;77.80;;;;;;5055985;28;20020;-67
2022/04/06 07:52:30;;;;;;;22.20;8.60;;;14.10;80.00;;;;;;5058896;28;20029;-66
2022/04/06 07:54:56;;;;;;;18.42;8.82;;;14.60;77.30;;;;;;5059036;28;20036;-66
2022/04/06 07:57:24;;;;;;;15.35;6.60;;;15.20;76.10;;;;;;5052560;28;20552;-67
2022/04/06 07:59:51;;;;;;;15.13;6.47;;;15.50;72.10;;;;;;5056410;28;20048;-66
2022/04/06 08:02:17;;;;;;;9.05;5.82;;;15.40;72.70;;;;;;5054379;28;20477;-67
2022/04/06 08:04:43;;;;;;;10.98;6.13;;;15.40;71.70;;;;;;5058019;28;20028;-66
2022/04/06 08:07:09;;;;;;;11.63;5.95;;;15.20;71.60;;;;;;5056034;28;20856;-66
2022/04/06 08:09:34;;;;;;;10.60;5.97;;;15.50;71.10;;;;;;5058003;28;20519;-66
2022/04/06 08:12:01;;;;;;;12.93;5.68;;;15.60;70.20;;;;;;5039587;28;20083;-67
2022/04/06 08:14:28;;;;;;;14.20;5.80;;;15.20;69.60;;;;;;5057320;28;20130;-67
2022/04/06 08:16:55;;;;;;;10.68;6.78;;;15.00;71.30;;;;;;5055502;28;20027;-72
2022/04/06 08:19:22;;;;;;;10.45;5.57;;;14.90;72.40;;;;;;5056052;28;20025;-67
2022/04/06 08:21:52;;;;;;;11.95;5.35;;;14.70;74.70;;;;;;5056004;28;20089;-64
2022/04/06 08:24:19;;;;;;;14.05;5.38;;;14.50;72.80;;;;;;5057025;28;20127;-67
2022/04/06 08:26:45;;;;;;;11.43;5.45;;;14.30;74.80;;;;;;5054982;28;20056;-67
2022/04/06 08:29:11;;;;;;;10.88;4.70;;;14.30;74.80;;;;;;5053099;28;20060;-67
2022/04/06 08:31:37;;;;;;;10.27;5.38;;;14.40;75.30;;;;;;5058934;28;20643;-67
2022/04/06 08:34:06;;;;;;;9.27;5.22;;;14.50;76.00;;;;;;5058163;28;20469;-66
2022/04/06 08:36:32;;;;;;;9.77;5.35;;;14.40;74.30;;;;;;5057097;28;20033;-66
2022/04/06 08:39:01;;;;;;;7.30;4.72;;;14.50;74.50;;;;;;5055403;28;20063;-67
2022/04/06 08:41:29;;;;;;;10.00;5.25;;;14.50;74.00;;;;;;5055358;28;20029;-66
2022/04/06 08:43:58;;;;;;;11.40;5.20;;;14.60;72.80;;;;;;5054301;28;20025;-65
2022/04/06 08:46:25;;;;;;;8.43;4.43;;;14.90;73.20;;;;;;5054536;28;20105;-68
2022/04/06 08:48:52;;;;;;;11.30;5.88;;;15.40;71.80;;;;;;5057609;28;20773;-65
2022/04/06 08:51:19;;;;;;;11.48;5.65;;;15.80;67.60;;;;;;5057645;28;20711;-66
2022/04/06 08:53:46;;;;;;;10.52;5.20;;;16.10;67.30;;;;;;5060256;28;20093;-66
2022/04/06 08:56:12;;;;;;;8.93;5.22;;;16.40;65.50;;;;;;5053253;28;20106;-66
2022/04/06 08:58:38;;;;;;;10.32;6.05;;;16.40;66.30;;;;;;5055929;28;20033;-66
2022/04/06 09:01:05;;;;;;;10.32;5.65;;;16.50;64.80;;;;;;5058552;28;20140;-66
2022/04/06 09:03:30;;;;;;;9.88;5.07;;;16.50;65.80;;;;;;5060011;28;20048;-63
2022/04/06 09:06:00;;;;;;;11.45;4.75;;;16.40;65.90;;;;;;5059059;28;20854;-64
2022/04/06 09:08:39;;;;;;;10.00;4.93;;;16.20;63.80;;;;;;5057172;28;20032;-65
2022/04/06 09:11:20;;;;;;;12.55;5.45;;;16.40;64.40;;;;;;5042815;28;20038;-65
2022/04/06 09:13:48;;;;;;;8.68;5.15;;;16.80;63.10;;;;;;5058743;28;20040;-66
2022/04/06 09:16:17;;;;;;;9.23;5.43;;;16.60;62.50;;;;;;5051460;28;20040;-65
2022/04/06 09:18:48;;;;;;;11.70;5.50;;;16.30;61.20;;;;;;5055757;28;20428;-66
2022/04/06 09:21:16;;;;;;;11.82;5.85;;;16.30;64.00;;;;;;5058082;28;20045;-66
2022/04/06 09:23:45;;;;;;;10.48;6.00;;;16.60;64.50;;;;;;5060368;28;20052;-66
2022/04/06 09:26:11;;;;;;;12.00;6.03;;;16.00;61.90;;;;;;5056693;28;20117;-62
2022/04/06 09:28:39;;;;;;;12.40;6.30;;;15.80;64.40;;;;;;5057934;28;20029;-65
2022/04/06 09:31:05;;;;;;;13.93;6.57;;;15.70;63.10;;;;;;5056885;28;20578;-64
2022/04/06 09:33:30;;;;;;;15.00;6.10;;;15.70;65.30;;;;;;5055731;28;20024;-65
2022/04/06 09:35:58;;;;;;;8.52;5.78;;;15.70;64.60;;;;;;5055518;28;20115;-65
2022/04/06 09:38:32;;;;;;;11.60;5.88;;;15.40;65.80;;;;;;5059226;28;20036;-65
2022/04/06 09:41:04;;;;;;;11.10;7.30;;;15.40;67.80;;;;;;5059060;28;20090;-65
2022/04/06 09:43:31;;;;;;;11.30;6.20;;;15.30;67.10;;;;;;5060290;28;20039;-65
2022/04/06 09:49:08;;;;;;;13.50;6.10;;;15.00;66.60;;;;;;5055784;28;20032;-65
2022/04/06 09:51:35;;;;;;;12.13;6.60;;;15.00;68.10;;;;;;5058241;28;20475;-64
2022/04/06 09:54:06;;;;;;;13.35;6.22;;;15.20;68.10;;;;;;5058042;28;20677;-65
2022/04/06 09:56:33;;;;;;;13.02;6.38;;;15.40;67.00;;;;;;5041403;28;20098;-66
2022/04/06 09:58:59;;;;;;;9.82;5.90;;;15.10;66.50;;;;;;5057749;28;20040;-66
2022/04/06 10:01:44;;;;;;;9.93;5.20;;;14.80;68.60;;;;;;5056731;28;20105;-66
2022/04/06 10:04:13;;;;;;;12.50;6.00;;;14.60;69.10;;;;;;5054122;28;20477;-66
2022/04/06 10:06:41;;;;;;;13.32;6.55;;;14.30;70.30;;;;;;5055667;28;20048;-66
2022/04/06 10:09:14;;;;;;;12.73;7.07;;;14.30;69.60;;;;;;5056071;28;20040;-65
2022/04/06 10:11:40;;;;;;;11.05;7.05;;;14.50;69.30;;;;;;5059237;28;20086;-67
2022/04/06 10:14:09;;;;;;;14.65;6.80;;;14.80;68.50;;;;;;5060340;28;20043;-67
2022/04/06 10:16:36;;;;;;;10.82;5.97;;;14.90;66.80;;;;;;5056059;28;20097;-67
2022/04/06 10:19:05;;;;;;;12.35;5.82;;;14.90;67.00;;;;;;5058345;28;20047;-67
2022/04/06 10:21:48;;;;;;;13.75;5.32;;;15.10;65.40;;;;;;5056032;28;20119;-67
2022/04/06 10:24:26;;;;;;;11.25;5.78;;;15.70;64.90;;;;;;5059282;28;20032;-67
2022/04/06 10:27:11;;;;;;;8.15;4.97;;;16.30;62.60;;;;;;5040555;28;20028;-67
2022/04/06 10:30:15;;;;;;;7.20;4.95;;;16.60;60.20;;;;;;5055282;28;20054;-67
2022/04/06 10:32:45;;;;;;;9.65;4.63;;;18.00;57.70;;;;;;5057354;28;20289;-67
2022/04/06 10:35:31;;;;;;;7.88;4.70;;;20.00;54.80;;;;;;5053531;28;20032;-67
2022/04/06 10:37:58;;;;;;;9.23;4.70;;;21.70;49.40;;;;;;5059778;28;20043;-68
2022/04/06 10:40:46;;;;;;;8.30;5.18;;;21.10;47.20;;;;;;5058467;28;20036;-67
2022/04/06 10:43:38;;;;;;;13.20;5.90;;;20.00;50.20;;;;;;5057757;28;20040;-67
2022/04/06 10:46:07;;;;;;;12.30;5.50;;;18.90;53.50;;;;;;5055381;28;20534;-67
2022/04/06 10:48:33;;;;;;;9.02;5.85;;;18.10;54.50;;;;;;5059334;28;20553;-67
2022/04/06 10:51:35;;;;;;;9.20;6.03;;;17.60;54.90;;;;;;5057842;28;20035;-67
2022/04/06 10:54:12;;;;;;;10.57;6.00;;;16.70;58.10;;;;;;5025636;28;20036;-67
2022/04/06 10:56:50;;;;;;;12.93;6.18;;;16.20;60.70;;;;;;5053310;28;20024;-67
2022/04/06 10:59:17;;;;;;;12.20;5.15;;;15.80;61.90;;;;;;5055608;28;20040;-67
2022/04/06 11:01:45;;;;;;;13.93;6.20;;;15.60;63.70;;;;;;5056809;28;20262;-67
2022/04/06 11:04:22;;;;;;;12.38;5.88;;;15.50;63.10;;;;;;5054435;28;20400;-66
2022/04/06 11:06:56;;;;;;;10.70;6.15;;;15.30;65.00;;;;;;5050998;28;20016;-67
2022/04/06 11:12:29;;;;;;;14.80;6.80;;;14.60;65.90;;;;;;5057830;28;20035;-68
2022/04/06 11:15:18;;;;;;;15.30;6.13;;;14.30;67.70;;;;;;5058676;28;20127;-68
2022/04/06 11:17:48;;;;;;;13.25;6.35;;;13.70;68.40;;;;;;5027969;28;20060;-68
2022/04/06 11:20:28;;;;;;;11.35;5.47;;;13.40;69.80;;;;;;5057250;28;20048;-68
2022/04/06 11:22:56;;;;;;;14.55;6.65;;;13.20;71.20;;;;;;5052972;28;20029;-68
2022/04/06 11:25:24;;;;;;;15.40;6.57;;;13.30;71.20;;;;;;5054872;28;20029;-68
2022/04/06 11:27:50;;;;;;;13.93;6.18;;;13.50;70.20;;;;;;5059777;28;20032;-68
2022/04/06 11:30:17;;;;;;;16.75;7.93;;;13.00;69.90;;;;;;5056651;28;20029;-68
2022/04/06 11:32:50;;;;;;;12.15;5.53;;;12.90;71.30;;;;;;5058729;28;20147;-69
2022/04/06 11:35:17;;;;;;;12.60;5.70;;;12.80;71.10;;;;;;5055427;28;20576;-67
2022/04/06 11:37:46;;;;;;;14.02;5.97;;;12.80;71.20;;;;;;5055129;28;20025;-68
2022/04/06 11:40:14;;;;;;;10.27;5.50;;;13.00;72.40;;;;;;5054776;28;20075;-68
2022/04/06 11:42:39;;;;;;;7.82;4.97;;;13.10;71.80;;;;;;5040004;28;20021;-68
2022/04/06 11:45:06;;;;;;;11.55;5.25;;;13.30;71.50;;;;;;5058429;28;20082;-68
2022/04/06 11:47:34;;;;;;;18.25;6.20;;;13.20;70.90;;;;;;5056113;28;20017;-68
2022/04/06 11:50:02;;;;;;;14.45;5.82;;;13.30;71.30;;;;;;5055211;28;20131;-68
2022/04/06 11:52:28;;;;;;;9.35;5.55;;;13.30;71.10;;;;;;5041343;28;20084;-68
2022/04/06 11:54:56;;;;;;;12.05;4.97;;;13.20;71.00;;;;;;5056465;28;20565;-68
2022/04/06 11:57:35;;;;;;;11.73;5.40;;;13.40;71.10;;;;;;5030596;28;20497;-68
2022/04/06 12:00:04;;;;;;;11.55;5.47;;;13.40;70.70;;;;;;5058581;28;20039;-68
2022/04/06 12:02:55;;;;;;;16.38;8.23;;;13.50;71.80;;;;;;5058266;28;20028;-68
2022/04/06 12:05:24;;;;;;;21.55;6.57;;;13.70;70.50;;;;;;5054654;28;20039;-69
2022/04/06 12:08:16;;;;;;;11.77;6.72;;;13.70;68.10;;;;;;5058035;28;20059;-68
2022/04/06 12:10:58;;;;;;;12.90;5.40;;;13.40;69.10;;;;;;5052826;28;20143;-69
2022/04/06 12:13:29;;;;;;;7.47;5.40;;;13.30;69.20;;;;;;5057402;28;20038;-68
2022/04/06 12:15:55;;;;;;;8.30;4.50;;;13.20;69.90;;;;;;5057229;28;20036;-68
2022/04/06 12:18:26;;;;;;;9.88;4.50;;;13.40;70.80;;;;;;5057926;28;20032;-70
2022/04/06 12:20:52;;;;;;;9.23;4.95;;;13.60;69.80;;;;;;5054850;28;20036;-68
2022/04/06 12:23:19;;;;;;;12.18;5.15;;;13.80;67.70;;;;;;5049803;28;20044;-68
2022/04/06 12:25:45;;;;;;;11.07;4.68;;;14.10;67.40;;;;;;5057706;28;20063;-68
2022/04/06 12:28:25;;;;;;;10.85;4.07;;;14.30;65.20;;;;;;5057341;28;20093;-68
2022/04/06 12:31:06;;;;;;;8.38;4.20;;;14.60;64.30;;;;;;5061461;28;20032;-68
2022/04/06 12:33:38;;;;;;;9.75;3.90;;;14.80;62.60;;;;;;5059105;28;20040;-69
2022/04/06 12:36:14;;;;;;;10.55;5.22;;;15.60;62.60;;;;;;5057523;28;20077;-68
2022/04/06 12:38:43;;;;;;;9.55;4.80;;;16.30;58.40;;;;;;5058810;28;20040;-68
2022/04/06 12:41:11;;;;;;;7.75;3.70;;;17.00;58.30;;;;;;5057122;28;20060;-69
2022/04/06 12:43:44;;;;;;;7.75;3.83;;;17.40;55.70;;;;;;5061613;28;20113;-70
2022/04/06 12:46:10;;;;;;;7.40;3.35;;;17.20;56.10;;;;;;5057138;28;20029;-69
2022/04/06 12:48:35;;;;;;;7.80;3.58;;;16.80;56.00;;;;;;5058231;28;20040;-67
2022/04/06 12:51:21;;;;;;;6.43;4.00;;;16.00;57.70;;;;;;5059028;28;20017;-69
2022/04/06 12:53:49;;;;;;;8.98;4.60;;;15.40;59.60;;;;;;5057042;28;20027;-68